createdAt,value
2022-10-28T00:01:25.326Z,100.00
2022-10-28T00:04:00.432Z,100.00
2022-10-28T00:06:34.971Z,100.00
2022-10-28T00:09:05.746Z,100.00
2022-10-28T00:11:36.137Z,100.00
2022-10-28T00:14:06.642Z,100.00
2022-10-28T00:16:37.163Z,100.00
2022-10-28T00:19:08.059Z,100.00
2022-10-28T00:21:38.826Z,100.00
2022-10-28T00:24:09.221Z,100.00
2022-10-28T00:26:42.106Z,100.00
2022-10-28T00:29:17.906Z,100.00
2022-10-28T00:31:47.075Z,100.00
2022-10-28T00:34:18.940Z,100.00
2022-10-28T00:36:48.250Z,100.00
2022-10-28T00:39:20.771Z,100.00
2022-10-28T00:41:58.641Z,100.00
2022-10-28T00:44:56.709Z,100.00
2022-10-28T00:47:55.767Z,100.00
2022-10-28T00:50:47.934Z,100.00
2022-10-28T00:53:26.434Z,100.00
2022-10-28T00:55:57.023Z,100.00
2022-10-28T00:58:26.421Z,100.00
2022-10-28T01:00:54.654Z,100.00
2022-10-28T01:03:23.114Z,100.00
2022-10-28T01:05:52.050Z,100.00
2022-10-28T01:08:20.182Z,100.00
2022-10-28T01:11:06.433Z,100.00
2022-10-28T01:14:24.401Z,100.00
2022-10-28T01:17:10.270Z,100.00
2022-10-28T01:19:49.343Z,100.00
2022-10-28T01:22:52.124Z,100.00
2022-10-28T01:26:03.864Z,100.00
2022-10-28T01:29:07.600Z,100.00
2022-10-28T01:32:11.693Z,100.00
2022-10-28T01:35:33.500Z,100.00
2022-10-28T01:38:28.018Z,100.00
2022-10-28T01:41:35.941Z,100.00
2022-10-28T01:44:44.981Z,100.00
2022-10-28T01:47:25.458Z,100.00
2022-10-28T01:50:15.588Z,100.00
2022-10-28T01:52:44.655Z,100.00
2022-10-28T01:55:39.140Z,100.00
2022-10-28T01:58:11.802Z,100.00
2022-10-28T02:00:40.657Z,100.00
2022-10-28T02:03:10.011Z,100.00
2022-10-28T02:05:46.826Z,100.00
2022-10-28T02:08:46.177Z,100.00
2022-10-28T02:11:38.773Z,100.00
2022-10-28T02:14:52.974Z,100.00
2022-10-28T02:17:38.290Z,100.00
2022-10-28T02:20:26.582Z,100.00
2022-10-28T02:23:27.403Z,100.00
2022-10-28T02:26:12.426Z,100.00
2022-10-28T02:29:17.748Z,100.00
2022-10-28T02:31:54.955Z,100.00
2022-10-28T02:34:31.020Z,100.00
2022-10-28T02:37:03.839Z,100.00
2022-10-28T02:39:40.632Z,100.00
2022-10-28T02:42:26.174Z,100.00
2022-10-28T02:45:00.402Z,100.00
2022-10-28T02:47:33.869Z,100.00
2022-10-28T02:50:06.461Z,100.00
2022-10-28T02:52:35.434Z,100.00
2022-10-28T02:55:06.070Z,100.00
2022-10-28T02:57:44.763Z,100.00
2022-10-28T03:00:19.445Z,100.00
2022-10-28T03:02:47.142Z,100.00
2022-10-28T03:05:14.990Z,100.00
2022-10-28T03:07:43.075Z,100.00
2022-10-28T03:10:10.759Z,100.00
2022-10-28T03:12:38.509Z,100.00
2022-10-28T03:15:07.195Z,100.00
2022-10-28T03:17:34.820Z,100.00
2022-10-28T03:20:02.577Z,100.00
2022-10-28T03:22:30.283Z,100.00
2022-10-28T03:24:57.929Z,100.00
2022-10-28T03:27:25.673Z,100.00
2022-10-28T03:29:53.319Z,100.00
2022-10-28T03:34:53.630Z,100.00
2022-10-28T03:37:21.274Z,100.00
2022-10-28T03:39:48.930Z,100.00
2022-10-28T03:42:16.733Z,100.00
2022-10-28T03:44:44.493Z,100.00
2022-10-28T03:47:12.122Z,100.00
2022-10-28T03:49:39.808Z,100.00
2022-10-28T03:52:07.450Z,100.00
2022-10-28T03:54:35.094Z,100.00
2022-10-28T03:57:02.884Z,100.00
2022-10-28T03:59:30.671Z,100.00
2022-10-28T04:01:58.425Z,100.00
2022-10-28T04:04:29.913Z,100.00
2022-10-28T04:06:58.626Z,100.00
2022-10-28T04:09:26.250Z,100.00
2022-10-28T04:11:54.112Z,100.00
2022-10-28T04:14:21.825Z,100.00
2022-10-28T04:16:49.469Z,100.00
2022-10-28T04:19:17.130Z,100.00
2022-10-28T04:21:44.816Z,100.00
2022-10-28T04:24:12.516Z,100.00
2022-10-28T04:26:40.270Z,100.00
2022-10-28T04:29:07.973Z,100.00
2022-10-28T04:31:35.654Z,100.00
2022-10-28T04:34:03.600Z,100.00
2022-10-28T04:36:31.340Z,100.00
2022-10-28T04:38:59.015Z,100.00
2022-10-28T04:41:26.682Z,100.00
2022-10-28T04:43:56.300Z,100.00
2022-10-28T04:46:24.258Z,100.00
2022-10-28T04:48:52.041Z,100.00
2022-10-28T04:51:19.702Z,100.00
2022-10-28T04:53:47.511Z,100.00
2022-10-28T04:56:15.201Z,100.00
2022-10-28T04:58:42.895Z,100.00
2022-10-28T05:01:11.057Z,100.00
2022-10-28T05:03:38.812Z,100.00
2022-10-28T05:06:06.618Z,100.00
2022-10-28T05:08:34.263Z,100.00
2022-10-28T05:11:01.927Z,100.00
2022-10-28T05:13:29.600Z,100.00
2022-10-28T05:15:57.370Z,100.00
2022-10-28T05:18:25.023Z,100.00
2022-10-28T05:20:55.038Z,100.00
2022-10-28T05:23:25.902Z,100.00
2022-10-28T05:25:58.251Z,100.00
2022-10-28T05:28:26.085Z,100.00
2022-10-28T05:30:53.835Z,100.00
2022-10-28T05:33:21.868Z,100.00
2022-10-28T05:35:49.891Z,100.00
2022-10-28T05:38:18.045Z,100.00
2022-10-28T05:40:45.752Z,100.00
2022-10-28T05:43:13.497Z,100.00
2022-10-28T05:45:41.195Z,100.00
2022-10-28T05:48:08.926Z,100.00
2022-10-28T05:50:36.606Z,100.00
2022-10-28T05:53:04.281Z,100.00
2022-10-28T05:55:32.063Z,100.00
2022-10-28T05:57:59.909Z,100.00
2022-10-28T06:00:28.814Z,100.00
2022-10-28T06:03:10.380Z,100.00
2022-10-28T06:05:44.195Z,100.00
2022-10-28T06:08:13.868Z,100.00
2022-10-28T06:10:56.942Z,100.00
2022-10-28T06:13:24.663Z,100.00
2022-10-28T06:15:55.291Z,100.00
2022-10-28T06:18:23.384Z,100.00
2022-10-28T06:21:00.373Z,100.00
2022-10-28T06:23:28.091Z,100.00
2022-10-28T06:26:00.942Z,100.00
2022-10-28T06:28:29.618Z,100.00
2022-10-28T06:31:05.624Z,100.00
2022-10-28T06:33:33.787Z,100.00
2022-10-28T06:36:02.348Z,100.00
2022-10-28T06:38:30.400Z,100.00
2022-10-28T06:40:58.200Z,100.00
2022-10-28T06:43:26.538Z,100.00
2022-10-28T06:45:55.788Z,100.00
2022-10-28T06:48:25.010Z,100.00
2022-10-28T06:50:56.169Z,100.00
2022-10-28T06:53:25.403Z,100.00
2022-10-28T06:55:57.335Z,100.00
2022-10-28T06:58:26.287Z,100.00
2022-10-28T07:00:56.538Z,100.00
2022-10-28T07:03:23.243Z,100.00
2022-10-28T07:05:51.489Z,100.00
2022-10-28T07:08:19.610Z,100.00
2022-10-28T07:10:58.892Z,100.00
2022-10-28T07:13:27.490Z,100.00
2022-10-28T07:16:00.654Z,100.00
2022-10-28T07:18:29.876Z,100.00
2022-10-28T07:21:01.486Z,100.00
2022-10-28T07:23:34.148Z,100.00
2022-10-28T07:26:02.094Z,100.00
2022-10-28T07:28:29.952Z,100.00
2022-10-28T07:31:02.600Z,100.00
2022-10-28T07:33:30.614Z,100.00
2022-10-28T07:35:58.329Z,100.00
2022-10-28T07:38:26.487Z,100.00
2022-10-28T07:40:54.373Z,100.00
2022-10-28T07:43:22.061Z,100.00
2022-10-28T07:45:57.201Z,100.00
2022-10-28T07:48:25.057Z,100.00
2022-10-28T07:50:52.780Z,100.00
2022-10-28T07:53:22.618Z,100.00
2022-10-28T07:55:58.036Z,100.00
2022-10-28T07:58:25.880Z,100.00
2022-10-28T08:00:53.927Z,100.00
2022-10-28T08:03:21.895Z,100.00
2022-10-28T08:05:49.568Z,100.00
2022-10-28T08:08:17.256Z,100.00
2022-10-28T08:10:44.865Z,100.00
2022-10-28T08:13:12.625Z,100.00
2022-10-28T08:15:40.288Z,100.00
2022-10-28T08:18:07.892Z,100.00
2022-10-28T08:20:35.599Z,100.00
2022-10-28T08:23:05.359Z,100.00
2022-10-28T08:25:35.231Z,100.00
2022-10-28T08:28:02.894Z,100.00
2022-10-28T08:30:36.545Z,100.00
2022-10-28T08:33:14.448Z,99.82
2022-10-28T08:35:42.896Z,98.95
2022-10-28T08:38:10.730Z,98.93
2022-10-28T08:41:22.072Z,98.03
2022-10-28T08:44:05.896Z,98.58
2022-10-28T08:47:25.816Z,97.06
2022-10-28T08:50:03.235Z,95.83
2022-10-28T08:52:45.966Z,95.15
2022-10-28T08:55:33.354Z,95.25
2022-10-28T08:58:16.579Z,93.97
2022-10-28T09:00:51.964Z,92.34
2022-10-28T09:03:38.999Z,91.54
2022-10-28T09:06:10.234Z,90.43
2022-10-28T09:08:51.059Z,89.32
2022-10-28T09:11:54.712Z,88.45
2022-10-28T09:14:37.390Z,88.51
2022-10-28T09:17:20.178Z,88.14
2022-10-28T09:19:56.982Z,87.53
2022-10-28T09:22:53.683Z,87.41
2022-10-28T09:25:50.087Z,86.16
2022-10-28T09:29:03.652Z,85.16
2022-10-28T09:31:47.468Z,84.18
2022-10-28T09:34:43.340Z,83.45
2022-10-28T09:37:28.141Z,83.77
2022-10-28T09:40:02.643Z,82.89
2022-10-28T09:42:37.577Z,82.53
2022-10-28T09:45:16.506Z,82.93
2022-10-28T09:47:53.625Z,81.08
2022-10-28T09:50:27.801Z,80.89
2022-10-28T09:53:16.268Z,79.90
2022-10-28T09:55:44.405Z,79.73
2022-10-28T09:58:13.830Z,79.51
2022-10-28T10:00:42.033Z,79.28
2022-10-28T10:03:10.011Z,80.18
2022-10-28T10:05:44.806Z,79.87
2022-10-28T10:08:18.817Z,78.76
2022-10-28T10:11:01.024Z,78.77
2022-10-28T10:13:34.816Z,78.17
2022-10-28T10:16:19.794Z,76.40
2022-10-28T10:18:54.473Z,76.50
2022-10-28T10:21:52.932Z,75.93
2022-10-28T10:24:36.071Z,75.46
2022-10-28T10:27:19.657Z,75.42
2022-10-28T10:29:51.234Z,74.97
2022-10-28T10:32:24.970Z,74.21
2022-10-28T10:35:25.900Z,74.30
2022-10-28T10:37:57.820Z,74.37
2022-10-28T10:40:33.456Z,75.19
2022-10-28T10:43:20.748Z,74.75
2022-10-28T10:45:58.843Z,74.79
2022-10-28T10:48:28.915Z,75.05
2022-10-28T10:50:56.991Z,74.60
2022-10-28T10:53:34.037Z,74.78
2022-10-28T10:56:10.774Z,74.38
2022-10-28T10:58:49.818Z,74.28
2022-10-28T11:01:24.043Z,74.71
2022-10-28T11:04:03.114Z,75.18
2022-10-28T11:06:36.626Z,74.63
2022-10-28T11:09:17.577Z,75.63
2022-10-28T11:11:45.688Z,74.44
2022-10-28T11:14:13.404Z,75.05
2022-10-28T11:16:54.375Z,74.82
2022-10-28T11:19:26.397Z,75.22
2022-10-28T11:22:01.174Z,74.95
2022-10-28T11:24:46.332Z,75.21
2022-10-28T11:27:57.611Z,75.25
2022-10-28T11:31:08.451Z,75.03
2022-10-28T11:34:05.454Z,74.40
2022-10-28T11:36:47.847Z,74.39
2022-10-28T11:39:34.051Z,73.30
2022-10-28T11:42:38.263Z,71.00
2022-10-28T11:45:21.374Z,71.41
2022-10-28T11:48:07.201Z,70.69
2022-10-28T11:50:57.421Z,70.35
2022-10-28T11:54:12.511Z,69.63
2022-10-28T11:56:47.914Z,69.35
2022-10-28T11:59:52.826Z,67.81
2022-10-28T12:02:49.398Z,67.90
2022-10-28T12:05:53.536Z,68.75
2022-10-28T12:08:58.337Z,69.97
2022-10-28T12:11:51.868Z,70.36
2022-10-28T12:14:37.407Z,70.69
2022-10-28T12:17:19.873Z,70.06
2022-10-28T12:19:59.517Z,69.64
2022-10-28T12:22:33.999Z,68.11
2022-10-28T12:25:08.961Z,67.75
2022-10-28T12:27:41.892Z,68.75
2022-10-28T12:30:21.723Z,69.28
2022-10-28T12:33:15.653Z,69.46
2022-10-28T12:36:32.087Z,69.54
2022-10-28T12:39:03.019Z,68.62
2022-10-28T12:41:55.157Z,68.06
2022-10-28T12:44:26.193Z,68.07
2022-10-28T12:47:14.117Z,67.86
2022-10-28T12:50:04.120Z,66.60
2022-10-28T12:53:01.949Z,66.51
2022-10-28T12:55:51.353Z,66.25
2022-10-28T12:58:36.263Z,66.25
2022-10-28T13:01:15.416Z,66.09
2022-10-28T13:03:43.355Z,66.71
2022-10-28T13:06:41.570Z,67.20
2022-10-28T13:09:38.002Z,67.82
2022-10-28T13:12:41.782Z,68.44
2022-10-28T13:15:32.685Z,73.52
2022-10-28T13:18:46.428Z,74.46
2022-10-28T13:22:13.157Z,74.75
2022-10-28T13:25:41.198Z,75.14
2022-10-28T13:28:16.282Z,73.81
2022-10-28T13:31:01.200Z,74.42
2022-10-28T13:33:33.062Z,73.22
2022-10-28T13:36:36.198Z,73.01
2022-10-28T13:39:23.989Z,73.80
2022-10-28T13:42:14.772Z,72.40
2022-10-28T13:44:57.456Z,72.16
2022-10-28T13:47:33.069Z,72.51
2022-10-28T13:50:07.381Z,73.83
2022-10-28T13:52:40.350Z,76.65
2022-10-28T13:55:14.196Z,75.74
2022-10-28T13:57:46.633Z,77.85
2022-10-28T14:00:17.562Z,76.57
2022-10-28T14:02:49.516Z,76.90
2022-10-28T14:05:40.802Z,76.20
2022-10-28T14:08:34.510Z,76.27
2022-10-28T14:11:08.729Z,76.20
2022-10-28T14:13:49.704Z,77.73
2022-10-28T14:16:40.253Z,77.46
2022-10-28T14:19:10.767Z,78.09
2022-10-28T14:21:51.325Z,79.72
2022-10-28T14:24:40.584Z,78.51
2022-10-28T14:27:08.343Z,77.40
2022-10-28T14:29:51.488Z,77.93
2022-10-28T14:32:31.723Z,78.46
2022-10-28T14:35:14.848Z,77.88
2022-10-28T14:38:08.473Z,77.79
2022-10-28T14:40:49.504Z,78.49
2022-10-28T14:43:40.465Z,78.35
2022-10-28T14:46:27.648Z,78.57
2022-10-28T14:48:57.913Z,79.00
2022-10-28T14:51:29.830Z,78.79
2022-10-28T14:54:00.562Z,79.31
2022-10-28T14:56:31.162Z,79.25
2022-10-28T14:59:26.299Z,79.47
2022-10-28T15:02:10.223Z,78.96
2022-10-28T15:04:41.645Z,79.33
2022-10-28T15:07:14.928Z,78.93
2022-10-28T15:09:48.839Z,79.95
2022-10-28T15:12:17.812Z,80.29
2022-10-28T15:14:53.195Z,80.16
2022-10-28T15:17:28.143Z,80.10
2022-10-28T15:20:00.400Z,81.27
2022-10-28T15:22:33.267Z,81.29
2022-10-28T15:25:06.960Z,82.67
2022-10-28T15:27:38.108Z,82.50
2022-10-28T15:30:23.625Z,82.87
2022-10-28T15:32:54.007Z,82.85
2022-10-28T15:35:27.757Z,83.36
2022-10-28T15:37:59.807Z,84.07
2022-10-28T15:40:35.406Z,83.54
2022-10-28T15:43:06.002Z,83.42
2022-10-28T15:45:41.346Z,83.84
2022-10-28T15:48:14.423Z,83.67
2022-10-28T15:50:42.160Z,84.12
2022-10-28T15:53:09.739Z,83.42
2022-10-28T15:56:06.630Z,83.71
2022-10-28T15:58:42.224Z,84.85
2022-10-28T16:01:31.495Z,85.65
2022-10-28T16:03:59.436Z,84.36
2022-10-28T16:06:34.752Z,84.14
2022-10-28T16:09:09.136Z,84.32
2022-10-28T16:11:42.823Z,84.59
2022-10-28T16:14:41.293Z,84.98
2022-10-28T16:17:27.444Z,85.48
2022-10-28T16:20:00.632Z,85.81
2022-10-28T16:22:31.073Z,86.00
2022-10-28T16:24:58.742Z,86.24
2022-10-28T16:27:31.041Z,86.34
2022-10-28T16:29:58.926Z,86.38
2022-10-28T16:32:33.913Z,86.66
2022-10-28T16:35:08.791Z,86.63
2022-10-28T16:37:40.452Z,86.72
2022-10-28T16:40:30.987Z,86.91
2022-10-28T16:43:01.524Z,87.04
2022-10-28T16:45:29.271Z,87.19
2022-10-28T16:47:57.084Z,87.55
2022-10-28T16:50:25.178Z,87.75
2022-10-28T16:52:54.961Z,87.94
2022-10-28T16:55:22.750Z,88.27
2022-10-28T16:57:50.399Z,88.51
2022-10-28T17:00:18.961Z,88.59
2022-10-28T17:02:50.651Z,88.87
2022-10-28T17:05:22.368Z,89.03
2022-10-28T17:07:50.845Z,88.79
2022-10-28T17:10:18.556Z,88.92
2022-10-28T17:12:46.249Z,89.23
2022-10-28T17:15:14.000Z,89.45
2022-10-28T17:17:42.535Z,89.45
2022-10-28T17:20:10.832Z,89.54
2022-10-28T17:22:40.390Z,89.69
2022-10-28T17:25:09.265Z,89.98
2022-10-28T17:27:36.980Z,89.75
2022-10-28T17:30:06.128Z,89.83
2022-10-28T17:32:34.062Z,90.01
2022-10-28T17:35:01.741Z,90.05
2022-10-28T17:37:29.892Z,89.92
2022-10-28T17:39:57.536Z,89.90
2022-10-28T17:42:25.669Z,89.80
2022-10-28T17:44:53.400Z,89.87
2022-10-28T17:47:21.032Z,89.92
2022-10-28T17:49:48.728Z,90.21
2022-10-28T17:52:16.456Z,89.92
2022-10-28T17:54:44.256Z,89.67
2022-10-28T17:57:12.582Z,89.55
2022-10-28T17:59:40.312Z,89.56
2022-10-28T18:02:13.272Z,89.80
2022-10-28T18:04:42.177Z,89.89
2022-10-28T18:07:09.811Z,89.93
2022-10-28T18:09:37.552Z,90.05
2022-10-28T18:12:06.638Z,90.49
2022-10-28T18:14:34.313Z,90.61
2022-10-28T18:17:02.028Z,90.76
2022-10-28T18:19:29.860Z,90.90
2022-10-28T18:21:57.615Z,90.95
2022-10-28T18:24:26.061Z,90.77
2022-10-28T18:26:55.830Z,90.80
2022-10-28T18:29:24.080Z,91.01
2022-10-28T18:31:51.862Z,91.15
2022-10-28T18:34:21.115Z,91.26
2022-10-28T18:36:49.448Z,91.40
2022-10-28T18:39:17.179Z,91.13
2022-10-28T18:41:44.879Z,90.54
2022-10-28T18:44:14.374Z,90.52
2022-10-28T18:46:42.605Z,90.43
2022-10-28T18:49:10.355Z,90.54
2022-10-28T18:51:38.132Z,90.37
2022-10-28T18:54:06.004Z,90.24
2022-10-28T18:56:34.330Z,89.80
2022-10-28T18:59:04.491Z,89.62
2022-10-28T19:01:33.182Z,89.83
2022-10-28T19:04:04.264Z,89.14
2022-10-28T19:06:33.972Z,88.22
2022-10-28T19:09:04.597Z,87.47
2022-10-28T19:11:33.821Z,86.69
2022-10-28T19:14:05.176Z,86.28
2022-10-28T19:16:34.931Z,85.99
2022-10-28T19:19:05.169Z,85.64
2022-10-28T19:21:33.586Z,85.53
2022-10-28T19:24:02.769Z,85.04
2022-10-28T19:26:32.010Z,84.88
2022-10-28T19:28:59.801Z,84.03
2022-10-28T19:31:27.535Z,83.39
2022-10-28T19:33:55.579Z,83.42
2022-10-28T19:36:29.405Z,83.16
2022-10-28T19:38:58.240Z,82.93
2022-10-28T19:41:29.473Z,83.16
2022-10-28T19:44:00.709Z,83.41
2022-10-28T19:46:32.374Z,83.64
2022-10-28T19:49:04.426Z,83.57
2022-10-28T19:51:39.749Z,83.56
2022-10-28T19:54:12.273Z,83.65
2022-10-28T19:56:42.603Z,83.65
2022-10-28T19:59:10.516Z,83.50
2022-10-28T20:01:39.896Z,83.29
2022-10-28T20:04:09.801Z,83.33
2022-10-28T20:06:40.577Z,83.34
2022-10-28T20:09:09.140Z,83.28
2022-10-28T20:11:39.612Z,83.50
2022-10-28T20:14:11.755Z,83.58
2022-10-28T20:16:42.958Z,83.08
2022-10-28T20:19:12.331Z,83.37
2022-10-28T20:21:40.400Z,83.10
2022-10-28T20:24:08.708Z,83.27
2022-10-28T20:26:38.431Z,83.23
2022-10-28T20:29:09.951Z,82.95
2022-10-28T20:31:41.037Z,83.17
2022-10-28T20:34:08.799Z,83.26
2022-10-28T20:36:39.963Z,82.70
2022-10-28T20:39:14.320Z,82.85
2022-10-28T20:41:44.697Z,82.65
2022-10-28T20:44:13.007Z,82.47
2022-10-28T20:46:41.644Z,82.72
2022-10-28T20:49:09.861Z,83.17
2022-10-28T20:51:37.534Z,82.68
2022-10-28T20:54:06.539Z,82.50
2022-10-28T20:56:37.732Z,82.37
2022-10-28T20:59:06.374Z,82.17
2022-10-28T21:01:40.641Z,82.30
2022-10-28T21:04:10.858Z,82.35
2022-10-28T21:06:39.969Z,82.53
2022-10-28T21:09:08.893Z,82.89
2022-10-28T21:11:36.649Z,82.12
2022-10-28T21:14:04.352Z,82.09
2022-10-28T21:16:32.328Z,82.08
2022-10-28T21:19:00.168Z,81.99
2022-10-28T21:21:29.293Z,82.09
2022-10-28T21:23:59.631Z,82.12
2022-10-28T21:26:27.468Z,81.84
2022-10-28T21:28:56.302Z,81.62
2022-10-28T21:31:24.643Z,81.64
2022-10-28T21:33:53.229Z,82.37
2022-10-28T21:36:22.295Z,82.35
2022-10-28T21:38:55.328Z,82.22
2022-10-28T21:41:24.272Z,82.17
2022-10-28T21:43:53.857Z,82.09
2022-10-28T21:46:23.328Z,82.26
2022-10-28T21:48:52.384Z,82.90
2022-10-28T21:51:20.031Z,82.56
2022-10-28T21:53:47.837Z,82.37
2022-10-28T21:56:19.431Z,82.46
2022-10-28T21:58:50.293Z,82.55
2022-10-28T22:01:22.108Z,82.63
2022-10-28T22:03:52.185Z,82.73
2022-10-28T22:06:22.204Z,83.01
2022-10-28T22:08:53.581Z,83.27
2022-10-28T22:11:23.897Z,83.24
2022-10-28T22:14:03.727Z,84.18
2022-10-28T22:16:34.367Z,83.83
2022-10-28T22:19:05.983Z,83.84
2022-10-28T22:21:40.097Z,83.94
2022-10-28T22:24:08.626Z,84.45
2022-10-28T22:26:36.294Z,84.46
2022-10-28T22:29:04.624Z,83.89
2022-10-28T22:31:33.364Z,83.89
2022-10-28T22:34:01.416Z,83.79
2022-10-28T22:36:29.904Z,83.91
2022-10-28T22:38:58.197Z,83.87
2022-10-28T22:41:30.724Z,83.90
2022-10-28T22:44:01.592Z,83.99
2022-10-28T22:46:33.477Z,84.11
2022-10-28T22:49:01.136Z,84.32
2022-10-28T22:51:28.842Z,84.73
2022-10-28T22:53:57.267Z,84.70
2022-10-28T22:56:26.863Z,84.59
2022-10-28T22:58:57.628Z,84.65
2022-10-28T23:01:28.334Z,84.88
2022-10-28T23:03:56.284Z,85.27
2022-10-28T23:06:27.177Z,85.14
2022-10-28T23:08:54.952Z,85.09
2022-10-28T23:11:23.063Z,85.22
2022-10-28T23:13:53.210Z,85.44
2022-10-28T23:16:22.808Z,85.18
2022-10-28T23:18:52.901Z,85.18
2022-10-28T23:21:24.138Z,85.24
2022-10-28T23:23:57.958Z,85.39
2022-10-28T23:26:28.325Z,85.55
2022-10-28T23:29:00.669Z,85.64
2022-10-28T23:31:28.585Z,85.80
2022-10-28T23:33:56.449Z,86.03
2022-10-28T23:36:24.403Z,86.15
2022-10-28T23:38:52.517Z,86.17
2022-10-28T23:41:20.990Z,86.20
2022-10-28T23:43:49.457Z,86.27
2022-10-28T23:46:18.345Z,86.47
2022-10-28T23:48:46.058Z,86.79
2022-10-28T23:51:14.126Z,86.96
2022-10-28T23:53:41.865Z,87.16
2022-10-28T23:56:09.515Z,87.10
2022-10-28T23:58:37.209Z,86.93
